Time;durP1;ratioP1;P1;durP2;ratioP2;P2;SDS_P1;SDS_P2;PMS_P1;PMS_P2;Temp;Humidity;BMP_temperature;BMP_pressure;BME280_temperature;BME280_humidity;BME280_pressure;Samples;Min_cycle;Max_cycle;Signal;HPM_P1;HPM_P2
2023/04/27 00:01:52;;;;;;;5.03;1.20;;;;;;;7.98;61.27;94323.88;5133312;27;20196;-73
2023/04/27 00:04:20;;;;;;;2.25;1.65;;;;;;;7.99;61.81;94325.47;5145554;27;20194;-74
2023/04/27 00:06:47;;;;;;;2.08;1.50;;;;;;;7.82;60.95;94313.56;5135202;27;20243;-74
2023/04/27 00:09:14;;;;;;;4.82;1.30;;;;;;;7.87;61.06;94330.72;5132012;27;20211;-74
2023/04/27 00:11:41;;;;;;;5.32;2.75;;;;;;;7.78;61.25;94334.22;5138783;27;20264;-75
2023/04/27 00:14:08;;;;;;;3.50;1.33;;;;;;;7.81;60.93;94335.44;5131850;27;20197;-75
2023/04/27 00:16:35;;;;;;;1.50;1.30;;;;;;;7.78;61.24;94336.91;5145523;27;20232;-75
2023/04/27 00:19:02;;;;;;;3.78;1.40;;;;;;;7.76;62.01;94335.63;5145930;27;20200;-74
2023/04/27 00:21:30;;;;;;;5.20;1.73;;;;;;;7.73;61.57;94334.34;5131940;27;20197;-75
2023/04/27 00:23:57;;;;;;;2.10;1.60;;;;;;;7.70;62.04;94344.97;5132047;27;20724;-75
2023/04/27 00:26:25;;;;;;;3.50;1.20;;;;;;;7.62;62.24;94335.78;5151000;27;20556;-74
2023/04/27 00:28:52;;;;;;;15.25;2.10;;;;;;;7.55;62.05;94335.44;5147616;27;20192;-73
2023/04/27 00:31:19;;;;;;;2.22;1.60;;;;;;;7.50;62.04;94332.91;5138088;27;20193;-76
2023/04/27 00:33:46;;;;;;;1.88;1.38;;;;;;;7.41;62.08;94332.09;5132830;27;20560;-74
2023/04/27 00:36:13;;;;;;;2.72;1.08;;;;;;;7.34;62.07;94326.38;5144814;27;20239;-74
2023/04/27 00:38:41;;;;;;;3.83;1.40;;;;;;;7.29;62.33;94331.91;5132503;27;20284;-74
2023/04/27 00:41:08;;;;;;;2.13;1.40;;;;;;;7.22;62.15;94336.97;5143977;27;20204;-74
2023/04/27 00:43:42;;;;;;;5.53;2.05;;;;;;;7.19;62.33;94340.28;5145527;27;20207;-74
2023/04/27 00:46:10;;;;;;;2.50;1.65;;;;;;;7.19;62.30;94342.97;5131715;27;20201;-75
2023/04/27 00:48:37;;;;;;;8.07;1.65;;;;;;;7.05;62.84;94330.44;5145487;27;20235;-74
2023/04/27 00:51:04;;;;;;;2.85;1.80;;;;;;;7.01;63.01;94345.63;5142308;27;20286;-75
2023/04/27 00:53:32;;;;;;;3.13;1.30;;;;;;;6.91;63.00;94334.34;5134394;27;20236;-75
2023/04/27 00:56:00;;;;;;;3.22;1.67;;;;;;;6.86;62.88;94343.34;5142416;27;20221;-75
2023/04/27 00:58:27;;;;;;;2.83;1.70;;;;;;;6.72;64.18;94334.56;5138594;27;20283;-74
2023/04/27 01:00:54;;;;;;;3.75;1.70;;;;;;;6.74;63.81;94335.06;5130862;27;20201;-74
2023/04/27 01:03:22;;;;;;;3.85;1.25;;;;;;;6.75;63.49;94344.72;5148972;27;20200;-74
2023/04/27 01:05:49;;;;;;;4.10;1.45;;;;;;;6.73;64.02;94350.41;5139932;27;20204;-75
2023/04/27 01:08:16;;;;;;;5.28;2.25;;;;;;;6.71;64.05;94357.19;5135702;27;20249;-74
2023/04/27 01:10:43;;;;;;;11.68;2.85;;;;;;;6.59;64.76;94354.28;5140160;27;20201;-74
2023/04/27 01:13:11;;;;;;;6.38;2.78;;;;;;;6.52;64.48;94354.75;5136304;27;20193;-73
2023/04/27 01:15:38;;;;;;;9.88;2.92;;;;;;;6.57;65.19;94361.88;5139600;27;20287;-74
2023/04/27 01:18:05;;;;;;;6.82;2.47;;;;;;;6.37;64.71;94341.69;5144511;27;20717;-74
2023/04/27 01:20:32;;;;;;;8.23;2.72;;;;;;;6.30;65.64;94357.44;5143231;27;20647;-74
2023/04/27 01:22:59;;;;;;;6.07;2.97;;;;;;;6.29;65.92;94356.66;5137573;27;20612;-75
2023/04/27 01:25:28;;;;;;;5.80;2.45;;;;;;;6.30;65.42;94363.63;5138724;27;20208;-74
2023/04/27 01:27:54;;;;;;;9.52;3.05;;;;;;;6.25;65.83;94366.47;5144451;27;20204;-74
2023/04/27 01:30:22;;;;;;;6.97;2.47;;;;;;;6.28;65.56;94365.06;5144259;27;20200;-74
2023/04/27 01:32:49;;;;;;;5.88;2.88;;;;;;;6.27;65.57;94366.94;5137333;27;20196;-73
2023/04/27 01:35:16;;;;;;;5.25;2.75;;;;;;;6.24;65.32;94364.88;5138323;27;20197;-73
2023/04/27 01:37:44;;;;;;;7.95;2.80;;;;;;;6.16;65.63;94365.59;5144613;27;20537;-75
2023/04/27 01:40:12;;;;;;;5.43;2.63;;;;;;;6.17;65.22;94375.25;5145207;27;20268;-75
2023/04/27 01:42:40;;;;;;;5.85;2.40;;;;;;;6.21;65.22;94376.22;5130777;27;20220;-74
2023/04/27 01:45:09;;;;;;;5.53;2.60;;;;;;;6.17;65.31;94369.88;5144569;27;20200;-74
2023/04/27 01:47:36;;;;;;;2.60;1.13;;;;;;;6.15;65.12;94377.44;5138796;27;20200;-74
2023/04/27 01:50:03;;;;;;;4.30;1.63;;;;;;;6.16;65.14;94368.28;5135406;27;20667;-75
2023/04/27 01:52:30;;;;;;;3.90;1.70;;;;;;;6.27;65.16;94375.03;5130614;27;20670;-75
2023/04/27 01:54:56;;;;;;;1.63;1.15;;;;;;;6.18;64.36;94360.69;5143871;27;20231;-74
2023/04/27 01:57:24;;;;;;;2.88;1.48;;;;;;;6.25;64.66;94371.03;5138664;27;20224;-74
2023/04/27 01:59:52;;;;;;;6.53;1.25;;;;;;;6.17;64.85;94375.25;5130304;27;20197;-74
2023/04/27 02:02:19;;;;;;;4.43;1.80;;;;;;;6.16;65.21;94373.66;5139557;27;20203;-74
2023/04/27 02:04:46;;;;;;;4.40;1.05;;;;;;;6.18;64.30;94370.66;5136791;27;20719;-74
2023/04/27 02:07:13;;;;;;;5.72;2.00;;;;;;;6.16;65.13;94368.28;5150581;27;20670;-74
2023/04/27 02:09:40;;;;;;;8.18;1.60;;;;;;;6.07;64.78;94370.13;5136409;27;20291;-74
2023/04/27 02:12:07;;;;;;;3.58;1.70;;;;;;;6.06;65.75;94373.91;5140650;27;20984;-74
2023/04/27 02:14:34;;;;;;;4.97;1.67;;;;;;;6.04;64.75;94370.72;5143878;27;20211;-74
2023/04/27 02:17:02;;;;;;;9.07;1.55;;;;;;;6.10;64.65;94374.91;5139846;27;20605;-74
2023/04/27 02:19:29;;;;;;;4.70;1.83;;;;;;;6.11;64.69;94371.09;5136400;27;20203;-75
2023/04/27 02:21:56;;;;;;;2.78;1.60;;;;;;;6.10;64.73;94380.28;5139726;27;20203;-74
2023/04/27 02:24:22;;;;;;;3.33;1.95;;;;;;;6.07;64.41;94375.50;5142608;27;20239;-74
2023/04/27 02:26:49;;;;;;;3.50;1.65;;;;;;;6.03;64.50;94385.25;5140043;27;20204;-74
2023/04/27 02:29:17;;;;;;;2.75;1.70;;;;;;;6.08;64.86;94385.16;5132956;27;20208;-74
2023/04/27 02:31:44;;;;;;;2.38;1.40;;;;;;;6.11;64.14;94376.47;5129732;27;20246;-74
2023/04/27 02:34:12;;;;;;;4.30;1.52;;;;;;;6.12;64.14;94383.44;5143045;27;20262;-74
2023/04/27 02:36:39;;;;;;;4.95;1.17;;;;;;;6.15;63.67;94380.13;5129035;27;20655;-73
2023/04/27 02:39:06;;;;;;;4.95;1.42;;;;;;;6.22;63.85;94377.81;5133287;27;20209;-74
2023/04/27 02:41:33;;;;;;;3.92;1.60;;;;;;;6.16;63.92;94373.66;5149813;27;20204;-74
2023/04/27 02:43:59;;;;;;;8.60;2.80;;;;;;;6.23;63.64;94384.78;5136045;27;20212;-74
2023/04/27 02:46:27;;;;;;;5.95;2.65;;;;;;;6.26;63.51;94386.09;5138516;27;20200;-74
2023/04/27 02:48:53;;;;;;;7.05;2.55;;;;;;;6.16;64.15;94387.09;5142906;27;20201;-74
2023/04/27 02:51:22;;;;;;;6.00;2.83;;;;;;;6.24;64.04;94386.38;5129126;27;20692;-74
2023/04/27 02:53:49;;;;;;;3.92;2.40;;;;;;;6.14;64.65;94386.63;5135493;27;20327;-74
2023/04/27 02:56:16;;;;;;;1.80;1.00;;;;;;;6.11;63.99;94389.94;5136177;27;20677;-75
2023/04/27 02:58:43;;;;;;;2.38;1.38;;;;;;;6.14;64.06;94381.25;5144557;27;20781;-74
2023/04/27 03:01:10;;;;;;;3.30;1.73;;;;;;;6.15;63.48;94382.81;5136140;27;20203;-75
2023/04/27 03:03:37;;;;;;;2.28;1.70;;;;;;;6.16;63.59;94389.78;5135933;27;20590;-74
2023/04/27 03:06:04;;;;;;;1.65;1.05;;;;;;;6.15;63.33;94392.81;5136160;27;20201;-73
2023/04/27 03:08:32;;;;;;;3.40;1.52;;;;;;;6.16;63.15;94394.38;5143002;27;20225;-75
2023/04/27 03:10:59;;;;;;;2.65;1.30;;;;;;;6.21;63.81;94397.75;5142647;27;20196;-74
2023/04/27 03:13:26;;;;;;;8.43;1.50;;;;;;;6.17;63.18;94388.69;5136065;27;20200;-74
2023/04/27 03:15:54;;;;;;;8.00;2.13;;;;;;;6.21;63.41;94397.75;5135665;27;20204;-74
2023/04/27 03:18:20;;;;;;;2.97;1.40;;;;;;;6.17;63.91;94407.50;5142571;27;20320;-74
2023/04/27 03:20:47;;;;;;;2.97;1.70;;;;;;;6.09;63.72;94410.94;5128921;28;20215;-74
2023/04/27 03:23:14;;;;;;;5.35;1.88;;;;;;;6.18;63.65;94405.63;5136766;27;20203;-74
2023/04/27 03:25:42;;;;;;;2.78;1.40;;;;;;;6.14;63.17;94408.16;5135860;27;20197;-73
2023/04/27 03:28:09;;;;;;;2.00;1.15;;;;;;;6.18;62.75;94409.09;5141333;27;20220;-75
2023/04/27 03:30:36;;;;;;;2.75;2.17;;;;;;;6.15;63.20;94420.47;5142821;27;20726;-73
2023/04/27 03:33:03;;;;;;;7.93;1.88;;;;;;;6.12;63.54;94409.53;5128735;28;20298;-72
2023/04/27 03:35:29;;;;;;;0.90;0.90;;;;;;;6.15;62.66;94417.00;5132746;27;20258;-74
2023/04/27 03:37:56;;;;;;;2.00;1.33;;;;;;;6.11;63.57;94422.19;5144786;27;20224;-72
2023/04/27 03:40:23;;;;;;;3.90;1.38;;;;;;;6.17;63.06;94422.84;5133083;27;20209;-73
2023/04/27 03:42:51;;;;;;;1.40;1.23;;;;;;;6.27;63.52;94423.44;5141436;27;20192;-73
2023/04/27 03:45:21;;;;;;;5.07;1.42;;;;;;;6.26;62.49;94427.22;5138896;27;20204;-74
2023/04/27 03:47:47;;;;;;;3.28;1.50;;;;;;;6.32;62.94;94428.69;5144277;27;20307;-73
2023/04/27 03:50:15;;;;;;;5.93;1.95;;;;;;;6.37;62.88;94427.78;5145509;27;20190;-73
2023/04/27 03:52:41;;;;;;;1.88;1.48;;;;;;;6.35;61.99;94413.81;5143123;27;20287;-73
2023/04/27 03:55:09;;;;;;;3.45;1.60;;;;;;;6.42;62.34;94425.72;5139563;27;20234;-73
2023/04/27 03:57:36;;;;;;;3.60;1.60;;;;;;;6.57;62.29;94427.25;5144196;27;20221;-71
2023/04/27 04:00:10;;;;;;;2.97;1.35;;;;;;;6.62;60.64;94429.84;5115575;27;20201;-72
2023/04/27 04:02:38;;;;;;;3.58;1.27;;;;;;;6.62;60.32;94429.03;5144899;27;20235;-72
2023/04/27 04:05:06;;;;;;;4.07;1.83;;;;;;;6.67;60.68;94437.00;5146816;27;20685;-72
2023/04/27 04:07:33;;;;;;;3.20;1.70;;;;;;;6.62;60.26;94455.94;5144966;27;20235;-75
2023/04/27 04:10:00;;;;;;;4.50;1.10;;;;;;;6.65;60.18;94444.56;5133287;27;20266;-75
2023/04/27 04:12:27;;;;;;;1.35;1.25;;;;;;;6.55;60.33;94439.44;5132260;27;20223;-73
2023/04/27 04:14:54;;;;;;;2.28;1.02;;;;;;;6.62;60.31;94453.25;5146136;27;20197;-74
2023/04/27 04:17:23;;;;;;;4.07;1.70;;;;;;;6.72;60.53;94451.09;5131989;27;20250;-74
2023/04/27 04:19:49;;;;;;;4.18;2.20;;;;;;;6.81;60.17;94448.47;5132294;27;20220;-74
2023/04/27 04:22:16;;;;;;;2.15;1.58;;;;;;;6.61;60.13;94454.34;5138669;27;20181;-74
2023/04/27 04:24:48;;;;;;;2.65;1.45;;;;;;;6.82;59.72;94455.47;5123667;27;20223;-74
2023/04/27 04:27:15;;;;;;;3.30;1.45;;;;;;;6.90;60.00;94462.78;5138412;27;20197;-73
2023/04/27 04:29:42;;;;;;;2.05;1.15;;;;;;;6.97;59.02;94459.66;5148758;27;20655;-72
2023/04/27 04:32:11;;;;;;;1.77;1.33;;;;;;;7.04;59.32;94468.88;5145664;27;20192;-73
2023/04/27 04:34:39;;;;;;;2.00;1.33;;;;;;;7.58;57.62;94476.88;5130911;27;20282;-74
2023/04/27 04:37:06;;;;;;;1.52;1.23;;;;;;;7.80;56.71;94469.47;5132370;27;20208;-74
2023/04/27 04:39:33;;;;;;;4.40;1.75;;;;;;;8.10;56.96;94469.69;5142253;27;20400;-74
2023/04/27 04:42:00;;;;;;;2.83;1.55;;;;;;;7.73;57.17;94474.53;5133469;27;20224;-74
2023/04/27 04:44:27;;;;;;;25.77;1.67;;;;;;;7.53;57.41;94491.28;5142165;27;20200;-74
2023/04/27 04:46:54;;;;;;;4.15;1.85;;;;;;;8.14;56.51;94486.84;5144302;27;20213;-74
2023/04/27 04:49:20;;;;;;;4.40;1.52;;;;;;;9.05;53.30;94475.09;5136952;27;20196;-79
2023/04/27 04:51:49;;;;;;;5.32;1.73;;;;;;;10.13;51.22;94477.16;5143084;27;20620;-74
2023/04/27 04:54:16;;;;;;;2.35;1.65;;;;;;;10.49;48.69;94468.53;5131292;27;20233;-75
2023/04/27 04:56:42;;;;;;;4.53;2.33;;;;;;;10.44;49.62;94476.84;5132264;27;20231;-73
2023/04/27 04:59:09;;;;;;;4.07;1.90;;;;;;;10.75;48.40;94481.84;5139447;27;20208;-74
2023/04/27 05:01:36;;;;;;;5.90;1.08;;;;;;;10.17;49.34;94483.53;5144244;27;20216;-73
2023/04/27 05:04:03;;;;;;;3.10;1.90;;;;;;;10.48;50.52;94483.19;5143722;27;20193;-74
2023/04/27 05:06:30;;;;;;;4.00;1.70;;;;;;;11.70;46.24;94491.72;5134137;27;20224;-73
2023/04/27 05:08:58;;;;;;;3.15;1.90;;;;;;;12.70;44.04;94484.78;5141235;27;20201;-74
2023/04/27 05:11:25;;;;;;;3.83;2.33;;;;;;;12.12;45.33;94483.41;5145410;27;20269;-74
2023/04/27 05:13:52;;;;;;;4.30;2.75;;;;;;;11.10;47.64;94495.88;5140876;27;20200;-73
2023/04/27 05:16:19;;;;;;;9.85;2.47;;;;;;;10.42;48.89;94502.66;5137399;27;20212;-73
2023/04/27 05:18:46;;;;;;;7.28;2.08;;;;;;;10.23;49.53;94493.06;5140347;27;20239;-74
2023/04/27 05:21:19;;;;;;;6.70;2.67;;;;;;;9.78;50.56;94509.03;5145036;27;20204;-74
2023/04/27 05:23:46;;;;;;;4.95;2.40;;;;;;;9.84;50.69;94513.13;5142715;27;20677;-74
2023/04/27 05:26:16;;;;;;;4.85;2.65;;;;;;;9.80;51.49;94517.63;5137419;27;20215;-74
2023/04/27 05:28:43;;;;;;;10.35;4.63;;;;;;;9.33;52.59;94524.13;5139018;27;20209;-74
2023/04/27 05:31:10;;;;;;;6.78;2.78;;;;;;;8.93;52.99;94534.38;5130861;27;20201;-74
2023/04/27 05:33:37;;;;;;;3.50;2.25;;;;;;;8.74;53.46;94530.13;5143510;27;20227;-77
2023/04/27 05:36:04;;;;;;;4.97;1.88;;;;;;;8.69;54.16;94510.56;5137468;27;20208;-73
2023/04/27 05:38:32;;;;;;;5.72;1.40;;;;;;;8.31;54.92;94529.25;5138513;27;20266;-74
2023/04/27 05:40:59;;;;;;;5.15;2.05;;;;;;;8.06;55.59;94528.88;5144775;27;20207;-74
2023/04/27 05:43:27;;;;;;;2.00;1.50;;;;;;;8.19;55.73;94527.19;5130430;27;20205;-74
2023/04/27 05:45:54;;;;;;;7.03;1.65;;;;;;;8.21;55.83;94533.03;5137254;27;20212;-73
2023/04/27 05:48:21;;;;;;;2.08;0.90;;;;;;;7.91;56.42;94523.13;5137387;27;20228;-73
2023/04/27 05:50:48;;;;;;;3.45;1.50;;;;;;;7.93;56.02;94529.78;5142691;27;20204;-76
2023/04/27 05:53:16;;;;;;;8.90;2.55;;;;;;;7.99;57.05;94535.84;5129785;27;20236;-72
2023/04/27 05:55:43;;;;;;;8.55;2.78;;;;;;;7.96;57.30;94539.97;5138597;27;20269;-73
2023/04/27 05:58:10;;;;;;;1.45;1.20;;;;;;;7.77;57.29;94534.03;5139320;27;20231;-73
2023/04/27 06:00:38;;;;;;;4.35;2.20;;;;;;;7.89;57.09;94542.31;5130670;27;20601;-73
2023/04/27 06:03:05;;;;;;;3.92;2.08;;;;;;;7.95;57.07;94530.28;5131718;27;20196;-73
2023/04/27 06:05:33;;;;;;;5.60;2.03;;;;;;;8.47;59.25;94533.88;5150847;27;20280;-73
2023/04/27 06:07:59;;;;;;;6.95;1.63;;;;;;;8.52;57.83;94536.44;5136558;27;20205;-73
2023/04/27 06:10:26;;;;;;;6.25;2.08;;;;;;;9.39;61.26;94530.97;5141035;27;20200;-72
2023/04/27 06:12:53;;;;;;;4.32;2.13;;;;;;;8.84;55.51;94518.19;5143886;27;20192;-74
2023/04/27 06:15:20;;;;;;;2.83;1.67;;;;;;;8.67;55.81;94529.00;5139051;27;20586;-73
2023/04/27 06:17:48;;;;;;;3.25;1.88;;;;;;;8.72;56.09;94539.66;5133875;27;20284;-73
2023/04/27 06:20:15;;;;;;;3.25;2.10;;;;;;;8.93;56.39;94521.66;5129725;27;20201;-74
2023/04/27 06:22:42;;;;;;;2.38;1.65;;;;;;;9.11;54.86;94534.06;5146630;27;20738;-73
2023/04/27 06:25:09;;;;;;;3.03;2.17;;;;;;;9.44;54.36;94528.88;5139952;27;20205;-73
2023/04/27 06:27:36;;;;;;;5.18;1.98;;;;;;;9.20;54.16;94510.50;5143012;27;20296;-73
2023/04/27 06:30:03;;;;;;;4.22;2.20;;;;;;;8.95;55.34;94516.75;5139258;27;20708;-73
2023/04/27 06:32:30;;;;;;;8.02;2.30;;;;;;;9.40;54.66;94508.22;5132439;27;20209;-74
2023/04/27 06:34:59;;;;;;;2.70;1.38;;;;;;;9.29;53.99;94526.72;5129541;27;20205;-72
2023/04/27 06:37:25;;;;;;;2.33;1.50;;;;;;;8.87;53.86;94506.75;5143090;27;20300;-74
2023/04/27 06:39:52;;;;;;;3.63;1.73;;;;;;;9.14;54.45;94528.00;5139876;27;20255;-74
2023/04/27 06:42:19;;;;;;;4.38;1.70;;;;;;;8.95;54.37;94535.66;5136084;27;20200;-74
2023/04/27 06:44:46;;;;;;;2.33;1.58;;;;;;;9.62;53.45;94516.91;5139471;27;20212;-74
2023/04/27 06:47:13;;;;;;;3.63;1.90;;;;;;;10.20;52.28;94515.38;5142871;27;20686;-73
2023/04/27 06:49:40;;;;;;;5.93;2.15;;;;;;;10.57;51.44;94513.69;5140311;27;20200;-73
2023/04/27 06:52:08;;;;;;;6.72;2.40;;;;;;;10.23;51.99;94513.94;5135318;27;20734;-72
2023/04/27 06:54:35;;;;;;;4.90;2.22;;;;;;;9.91;52.61;94518.84;5136690;27;20367;-73
2023/04/27 06:57:02;;;;;;;4.03;1.90;;;;;;;10.26;50.99;94521.38;5142788;27;20279;-74
2023/04/27 06:59:29;;;;;;;9.73;2.88;;;;;;;10.89;51.51;94514.88;5134470;27;20232;-73
2023/04/27 07:01:55;;;;;;;5.60;2.20;;;;;;;11.06;49.66;94503.09;5135643;27;20291;-74
2023/04/27 07:04:22;;;;;;;5.72;2.00;;;;;;;10.30;51.01;94503.38;5136529;27;20193;-73
2023/04/27 07:06:49;;;;;;;3.88;2.33;;;;;;;10.48;50.44;94515.69;5143232;27;20589;-74
2023/04/27 07:09:18;;;;;;;4.80;2.10;;;;;;;10.63;50.29;94503.47;5142608;27;20188;-74
2023/04/27 07:11:45;;;;;;;11.45;2.08;;;;;;;10.81;50.08;94509.53;5128842;27;20209;-74
2023/04/27 07:14:11;;;;;;;4.50;1.50;;;;;;;10.46;50.76;94512.50;5128328;27;20742;-74
2023/04/27 07:16:38;;;;;;;2.15;1.50;;;;;;;10.13;50.24;94504.22;5128599;28;20201;-75
2023/04/27 07:19:05;;;;;;;9.25;2.50;;;;;;;10.72;51.26;94487.13;5142030;27;20570;-73
2023/04/27 07:21:32;;;;;;;4.93;2.22;;;;;;;10.88;49.86;94496.25;5136344;27;20200;-74
2023/04/27 07:23:59;;;;;;;4.38;2.13;;;;;;;11.35;49.68;94505.66;5135416;27;20208;-74
2023/04/27 07:26:27;;;;;;;4.25;2.05;;;;;;;11.96;48.61;94481.38;5149481;27;20251;-74
2023/04/27 07:28:55;;;;;;;2.45;1.52;;;;;;;12.19;46.42;94487.13;5135456;27;20792;-73
2023/04/27 07:31:22;;;;;;;4.88;1.70;;;;;;;12.34;46.25;94491.06;5141312;27;20197;-74
2023/04/27 07:33:49;;;;;;;4.75;2.50;;;;;;;11.56;47.62;94493.97;5128875;28;20205;-74
2023/04/27 07:36:16;;;;;;;6.45;1.80;;;;;;;12.17;47.53;94480.44;5136740;27;20219;-73
2023/04/27 07:38:43;;;;;;;1.77;1.55;;;;;;;11.95;46.25;94496.06;5135331;27;20224;-73
2023/04/27 07:41:10;;;;;;;5.38;2.28;;;;;;;12.28;46.85;94487.00;5140465;27;20693;-73
2023/04/27 07:43:38;;;;;;;7.30;2.67;;;;;;;12.32;46.73;94498.75;5142536;27;20197;-75
2023/04/27 07:46:05;;;;;;;4.10;2.38;;;;;;;12.16;47.06;94484.31;5137144;27;20256;-73
2023/04/27 07:48:32;;;;;;;8.70;2.88;;;;;;;12.16;47.39;94478.88;5135546;27;20663;-74
2023/04/27 07:50:59;;;;;;;4.72;2.05;;;;;;;11.93;46.68;94487.47;5139241;27;20573;-73
2023/04/27 07:53:26;;;;;;;4.32;1.98;;;;;;;11.32;48.31;94479.22;5145364;27;20240;-74
2023/04/27 07:55:53;;;;;;;3.05;1.95;;;;;;;11.26;48.88;94491.41;5138810;27;20208;-74
2023/04/27 07:58:20;;;;;;;3.50;1.73;;;;;;;11.29;47.48;94501.59;5142090;27;20644;-74
2023/04/27 08:00:48;;;;;;;5.43;2.58;;;;;;;10.88;48.22;94496.25;5139290;27;20227;-72
2023/04/27 08:03:15;;;;;;;6.50;1.95;;;;;;;11.56;48.08;94497.47;5132055;27;20209;-73
2023/04/27 08:05:42;;;;;;;3.95;2.47;;;;;;;11.65;47.50;94491.94;5139229;27;20235;-73
2023/04/27 08:08:08;;;;;;;3.92;1.90;;;;;;;12.48;46.27;94494.22;5135422;27;20207;-73
2023/04/27 08:10:36;;;;;;;2.58;1.70;;;;;;;12.75;46.73;94484.53;5137659;27;20261;-74
2023/04/27 08:13:04;;;;;;;3.05;1.73;;;;;;;12.48;46.11;94483.34;5141870;27;20255;-73
2023/04/27 08:15:30;;;;;;;2.70;1.70;;;;;;;11.68;45.70;94502.13;5139840;27;20206;-74
2023/04/27 08:17:59;;;;;;;5.35;2.90;;;;;;;11.81;46.42;94495.59;5134497;27;20200;-74
2023/04/27 08:20:25;;;;;;;6.72;2.80;;;;;;;11.60;47.06;94501.09;5136682;27;20281;-73
2023/04/27 08:22:52;;;;;;;6.00;2.90;;;;;;;11.87;46.20;94498.91;5146048;27;20246;-73
2023/04/27 08:25:20;;;;;;;3.45;2.00;;;;;;;12.39;45.14;94488.13;5131690;27;20201;-73
2023/04/27 08:27:46;;;;;;;2.47;1.90;;;;;;;12.12;45.34;94494.25;5146086;27;20216;-73
2023/04/27 08:30:14;;;;;;;6.03;2.72;;;;;;;11.84;45.50;94478.66;5144284;27;20723;-73
2023/04/27 08:32:41;;;;;;;6.88;2.78;;;;;;;12.26;45.79;94486.56;5138639;27;20200;-74
2023/04/27 08:35:10;;;;;;;2.72;2.08;;;;;;;12.59;46.15;94479.00;5139522;27;20197;-74
2023/04/27 08:37:37;;;;;;;1.25;1.15;;;;;;;12.91;44.72;94471.78;5145815;27;20201;-74
2023/04/27 08:40:06;;;;;;;2.10;0.93;;;;;;;11.59;46.41;94496.00;5145396;27;20228;-74
2023/04/27 08:42:33;;;;;;;5.10;1.77;;;;;;;11.61;46.78;94491.03;5131554;27;20224;-73
2023/04/27 08:45:00;;;;;;;6.70;2.40;;;;;;;12.37;45.75;94487.66;5145149;27;20193;-73
2023/04/27 08:47:27;;;;;;;3.58;1.88;;;;;;;12.38;45.90;94491.97;5131457;27;20197;-73
2023/04/27 08:49:54;;;;;;;2.08;1.25;;;;;;;11.84;46.17;94503.06;5145523;27;20196;-74
2023/04/27 08:52:23;;;;;;;11.20;2.15;;;;;;;12.08;45.34;94489.50;5139493;27;20247;-75
2023/04/27 08:54:49;;;;;;;4.28;2.28;;;;;;;12.59;45.11;94498.03;5137785;27;20228;-73
2023/04/27 08:57:17;;;;;;;2.50;1.65;;;;;;;12.69;45.37;94505.72;5143478;27;20197;-74
2023/04/27 08:59:44;;;;;;;9.68;2.08;;;;;;;12.64;44.48;94499.72;5136263;27;20729;-73
2023/04/27 09:02:19;;;;;;;3.65;1.85;;;;;;;12.64;44.45;94500.53;5140444;27;20204;-73
2023/04/27 09:04:46;;;;;;;3.92;2.05;;;;;;;12.86;43.83;94490.25;5138118;27;20191;-74
2023/04/27 09:07:14;;;;;;;4.35;2.03;;;;;;;13.33;43.78;94487.72;5141305;27;20239;-73
2023/04/27 09:09:42;;;;;;;2.05;1.33;;;;;;;12.53;43.73;94493.19;5145248;27;20209;-73
2023/04/27 09:12:16;;;;;;;4.05;2.17;;;;;;;12.17;44.21;94485.88;5141680;27;20196;-73
2023/04/27 09:14:46;;;;;;;7.93;2.17;;;;;;;13.08;44.39;94487.03;5137870;27;20291;-74
2023/04/27 09:17:13;;;;;;;2.88;1.80;;;;;;;13.01;43.33;94479.44;5139530;27;20201;-73
2023/04/27 09:19:40;;;;;;;4.50;2.38;;;;;;;13.82;43.50;94480.03;5144743;27;20248;-73
2023/04/27 09:22:09;;;;;;;3.65;2.10;;;;;;;13.50;41.52;94482.75;5131181;27;20208;-73
2023/04/27 09:24:37;;;;;;;3.95;2.10;;;;;;;13.04;43.30;94483.41;5136817;27;20275;-74
2023/04/27 09:27:07;;;;;;;5.05;2.40;;;;;;;13.14;43.78;94474.72;5137544;27;20212;-73
2023/04/27 09:29:36;;;;;;;5.15;2.35;;;;;;;13.70;41.84;94474.69;5136907;27;20196;-73
2023/04/27 09:32:14;;;;;;;4.82;1.58;;;;;;;13.28;42.37;94477.88;5150783;27;20252;-74
2023/04/27 09:34:41;;;;;;;5.03;2.10;;;;;;;13.61;42.08;94469.41;5139492;27;20646;-74
2023/04/27 09:37:09;;;;;;;2.70;0.85;;;;;;;13.30;41.48;94445.69;5134872;27;20352;-75
2023/04/27 09:39:36;;;;;;;4.10;1.42;;;;;;;13.66;41.02;94455.56;5130858;27;20256;-74
2023/04/27 09:42:05;;;;;;;4.55;1.75;;;;;;;13.23;41.86;94456.38;5144569;27;20615;-74
2023/04/27 09:44:33;;;;;;;2.63;1.55;;;;;;;12.80;42.20;94441.59;5140541;27;20197;-75
2023/04/27 09:47:01;;;;;;;4.00;1.80;;;;;;;12.93;41.78;94457.84;5137258;27;20216;-74
2023/04/27 09:49:28;;;;;;;3.03;2.08;;;;;;;13.01;41.99;94454.97;5140424;27;20197;-73
2023/04/27 09:51:59;;;;;;;3.78;2.13;;;;;;;12.93;42.00;94452.41;5134488;27;20699;-74
2023/04/27 09:54:29;;;;;;;5.75;2.20;;;;;;;13.56;40.85;94458.00;5138645;27;20320;-78
2023/04/27 09:57:11;;;;;;;5.75;2.22;;;;;;;13.45;40.35;94447.63;5143712;27;20193;-73
2023/04/27 09:59:55;;;;;;;6.60;2.20;;;;;;;13.95;41.90;94443.41;5134494;27;20213;-73
2023/04/27 10:02:23;;;;;;;4.88;1.65;;;;;;;13.60;40.93;94450.72;5130234;27;20193;-75
2023/04/27 10:05:10;;;;;;;4.65;1.70;;;;;;;14.63;39.54;94432.09;5144076;27;20296;-74
2023/04/27 10:07:39;;;;;;;2.38;1.60;;;;;;;14.42;39.10;94434.38;5130209;27;20212;-74
2023/04/27 10:10:07;;;;;;;2.28;1.50;;;;;;;14.74;38.69;94435.88;5137165;27;20684;-73
2023/04/27 10:12:36;;;;;;;3.67;1.48;;;;;;;14.23;39.91;94440.53;5136149;27;20282;-74
2023/04/27 10:15:13;;;;;;;4.28;1.92;;;;;;;14.17;39.75;94445.50;5142594;27;20292;-74
2023/04/27 10:17:47;;;;;;;2.95;1.67;;;;;;;14.12;39.66;94437.59;5143363;27;20191;-74
2023/04/27 10:20:14;;;;;;;2.92;1.67;;;;;;;14.24;39.17;94439.41;5139542;27;20247;-73
2023/04/27 10:22:42;;;;;;;2.08;1.70;;;;;;;14.06;39.77;94417.22;5132808;27;20280;-73
2023/04/27 10:25:20;;;;;;;2.80;1.88;;;;;;;14.72;38.44;94432.69;5129243;27;20242;-74
2023/04/27 10:27:53;;;;;;;3.28;1.77;;;;;;;14.64;39.26;94435.63;5143150;27;20204;-73
2023/04/27 10:30:21;;;;;;;4.60;1.75;;;;;;;14.25;38.50;94430.09;5142254;27;20197;-73
2023/04/27 10:32:53;;;;;;;2.70;1.60;;;;;;;14.23;38.98;94435.88;5135695;27;20201;-73
2023/04/27 10:35:21;;;;;;;4.40;2.10;;;;;;;14.49;40.00;94431.78;5136074;27;20208;-73
2023/04/27 10:37:48;;;;;;;4.93;1.90;;;;;;;14.06;39.02;94428.13;5142628;27;20295;-74
2023/04/27 10:40:17;;;;;;;7.00;2.17;;;;;;;14.81;38.49;94427.81;5142526;27;20224;-74
2023/04/27 10:42:45;;;;;;;5.90;1.50;;;;;;;14.64;38.27;94420.06;5136604;27;20197;-74
2023/04/27 10:45:13;;;;;;;2.35;1.52;;;;;;;14.76;39.12;94428.09;5135325;27;20219;-73
2023/04/27 10:47:41;;;;;;;2.13;1.52;;;;;;;14.31;39.31;94430.59;5141199;27;20343;-73
2023/04/27 10:50:12;;;;;;;4.68;1.75;;;;;;;14.71;38.81;94427.59;5142643;27;20197;-72
2023/04/27 10:52:42;;;;;;;3.00;1.88;;;;;;;14.60;37.78;94430.13;5139394;27;20734;-73
2023/04/27 10:55:15;;;;;;;3.20;1.60;;;;;;;13.94;39.79;94422.75;5136290;27;20196;-73
2023/04/27 10:57:50;;;;;;;5.53;1.63;;;;;;;13.38;38.98;94436.56;5141722;27;20233;-80
2023/04/27 11:00:24;;;;;;;4.30;1.90;;;;;;;13.65;38.59;94424.03;5130164;27;20252;-74
2023/04/27 11:02:51;;;;;;;5.38;1.90;;;;;;;14.77;38.51;94402.41;5142875;27;20224;-74
2023/04/27 11:05:19;;;;;;;4.10;1.90;;;;;;;15.47;36.78;94417.72;5136577;27;20214;-73
2023/04/27 11:07:47;;;;;;;2.95;1.63;;;;;;;15.92;37.14;94400.56;5136015;27;20197;-73
2023/04/27 11:10:17;;;;;;;4.53;1.67;;;;;;;15.27;36.12;94419.75;5142594;27;20201;-74
2023/04/27 11:12:44;;;;;;;5.25;1.92;;;;;;;14.29;37.48;94430.16;5143380;27;20196;-74
2023/04/27 11:15:12;;;;;;;4.18;1.98;;;;;;;14.16;37.64;94416.66;5137226;27;20244;-74
2023/04/27 11:17:41;;;;;;;3.90;1.90;;;;;;;13.96;39.11;94419.69;5135216;27;20223;-74
2023/04/27 11:20:09;;;;;;;3.40;2.20;;;;;;;14.12;38.86;94428.63;5140857;27;20232;-74
2023/04/27 11:22:44;;;;;;;5.82;2.30;;;;;;;13.61;40.02;94427.78;5129250;28;20200;-73
2023/04/27 11:25:12;;;;;;;5.85;2.17;;;;;;;14.48;41.09;94416.63;5139643;27;20188;-74
2023/04/27 11:27:40;;;;;;;4.53;2.05;;;;;;;14.74;38.61;94422.22;5135871;27;20295;-74
2023/04/27 11:30:20;;;;;;;3.53;2.10;;;;;;;15.13;38.67;94424.94;5138797;27;20229;-73
2023/04/27 11:32:48;;;;;;;4.95;1.70;;;;;;;14.60;39.03;94418.41;5129439;28;20284;-74
2023/04/27 11:35:17;;;;;;;2.40;1.10;;;;;;;14.12;39.04;94434.84;5141810;27;20561;-79
2023/04/27 11:37:44;;;;;;;4.40;2.20;;;;;;;13.37;40.33;94435.00;5135006;27;20227;-73
2023/04/27 11:40:14;;;;;;;10.23;2.63;;;;;;;13.34;40.13;94432.97;5135101;27;20273;-74